sensor_id;sensor_type;location;lat;lon;timestamp;P1;durP1;ratioP1;P2;durP2;ratioP2
75400;SDS011;63974;47.538;18.972;2023-01-28T00:01:06;58.35;;;19.15;;
75400;SDS011;63974;47.538;18.972;2023-01-28T00:04:13;54.10;;;18.55;;
75400;SDS011;63974;47.538;18.972;2023-01-28T00:07:16;46.63;;;14.55;;
75400;SDS011;63974;47.538;18.972;2023-01-28T00:10:20;48.95;;;19.55;;
75400;SDS011;63974;47.538;18.972;2023-01-28T00:13:23;43.10;;;17.00;;
75400;SDS011;63974;47.538;18.972;2023-01-28T00:16:26;60.95;;;19.00;;
75400;SDS011;63974;47.538;18.972;2023-01-28T00:19:29;57.65;;;18.30;;
75400;SDS011;63974;47.538;18.972;2023-01-28T00:22:32;61.40;;;19.50;;
75400;SDS011;63974;47.538;18.972;2023-01-28T00:25:35;59.03;;;18.65;;
75400;SDS011;63974;47.538;18.972;2023-01-28T00:28:38;52.13;;;16.20;;
75400;SDS011;63974;47.538;18.972;2023-01-28T00:31:41;55.13;;;19.85;;
75400;SDS011;63974;47.538;18.972;2023-01-28T00:34:44;53.85;;;18.45;;
75400;SDS011;63974;47.538;18.972;2023-01-28T00:37:46;56.30;;;17.38;;
75400;SDS011;63974;47.538;18.972;2023-01-28T00:40:49;59.22;;;20.65;;
75400;SDS011;63974;47.538;18.972;2023-01-28T00:43:52;45.37;;;16.50;;
75400;SDS011;63974;47.538;18.972;2023-01-28T00:46:55;53.72;;;17.95;;
75400;SDS011;63974;47.538;18.972;2023-01-28T00:49:58;49.75;;;17.23;;
75400;SDS011;63974;47.538;18.972;2023-01-28T00:53:01;54.50;;;18.20;;
75400;SDS011;63974;47.538;18.972;2023-01-28T00:56:04;58.40;;;18.85;;
75400;SDS011;63974;47.538;18.972;2023-01-28T00:59:09;47.67;;;17.00;;
75400;SDS011;63974;47.538;18.972;2023-01-28T01:02:12;54.70;;;18.10;;
75400;SDS011;63974;47.538;18.972;2023-01-28T01:05:15;51.65;;;19.10;;
75400;SDS011;63974;47.538;18.972;2023-01-28T01:08:18;42.13;;;15.65;;
75400;SDS011;63974;47.538;18.972;2023-01-28T01:11:21;56.88;;;22.45;;
75400;SDS011;63974;47.538;18.972;2023-01-28T01:14:24;57.13;;;19.47;;
75400;SDS011;63974;47.538;18.972;2023-01-28T01:17:30;48.70;;;15.68;;
75400;SDS011;63974;47.538;18.972;2023-01-28T01:20:33;51.97;;;17.77;;
75400;SDS011;63974;47.538;18.972;2023-01-28T01:23:41;68.00;;;21.23;;
75400;SDS011;63974;47.538;18.972;2023-01-28T01:26:43;58.13;;;18.27;;
75400;SDS011;63974;47.538;18.972;2023-01-28T01:29:46;58.27;;;19.13;;
75400;SDS011;63974;47.538;18.972;2023-01-28T01:32:49;53.58;;;17.35;;
75400;SDS011;63974;47.538;18.972;2023-01-28T01:35:52;41.65;;;16.85;;
75400;SDS011;63974;47.538;18.972;2023-01-28T01:39:00;56.10;;;19.38;;
75400;SDS011;63974;47.538;18.972;2023-01-28T01:42:04;48.85;;;18.27;;
75400;SDS011;63974;47.538;18.972;2023-01-28T01:45:10;57.63;;;21.53;;
75400;SDS011;63974;47.538;18.972;2023-01-28T01:48:20;63.08;;;19.42;;
75400;SDS011;63974;47.538;18.972;2023-01-28T01:51:28;61.67;;;19.48;;
75400;SDS011;63974;47.538;18.972;2023-01-28T01:54:34;58.25;;;19.98;;
75400;SDS011;63974;47.538;18.972;2023-01-28T01:57:40;56.47;;;20.73;;
75400;SDS011;63974;47.538;18.972;2023-01-28T02:00:44;51.43;;;17.87;;
75400;SDS011;63974;47.538;18.972;2023-01-28T02:03:54;48.60;;;17.25;;
75400;SDS011;63974;47.538;18.972;2023-01-28T02:07:03;51.50;;;18.15;;
75400;SDS011;63974;47.538;18.972;2023-01-28T02:10:07;53.55;;;18.50;;
75400;SDS011;63974;47.538;18.972;2023-01-28T02:13:11;52.00;;;19.08;;
75400;SDS011;63974;47.538;18.972;2023-01-28T02:16:17;53.50;;;17.97;;
75400;SDS011;63974;47.538;18.972;2023-01-28T02:19:21;50.53;;;16.83;;
75400;SDS011;63974;47.538;18.972;2023-01-28T02:29:35;52.92;;;18.70;;
75400;SDS011;63974;47.538;18.972;2023-01-28T02:32:44;55.57;;;19.03;;
75400;SDS011;63974;47.538;18.972;2023-01-28T02:35:55;51.33;;;16.52;;
75400;SDS011;63974;47.538;18.972;2023-01-28T02:39:00;57.63;;;20.48;;
75400;SDS011;63974;47.538;18.972;2023-01-28T02:42:10;48.75;;;18.83;;
75400;SDS011;63974;47.538;18.972;2023-01-28T02:45:22;54.28;;;19.73;;
75400;SDS011;63974;47.538;18.972;2023-01-28T02:48:48;53.40;;;18.10;;
75400;SDS011;63974;47.538;18.972;2023-01-28T02:55:05;57.60;;;20.05;;
75400;SDS011;63974;47.538;18.972;2023-01-28T03:01:52;51.70;;;19.38;;
75400;SDS011;63974;47.538;18.972;2023-01-28T03:05:22;50.63;;;16.93;;
75400;SDS011;63974;47.538;18.972;2023-01-28T03:12:28;46.95;;;17.35;;
75400;SDS011;63974;47.538;18.972;2023-01-28T03:15:52;48.22;;;17.30;;
75400;SDS011;63974;47.538;18.972;2023-01-28T03:19:14;56.60;;;20.23;;
75400;SDS011;63974;47.538;18.972;2023-01-28T03:22:38;46.53;;;18.00;;
75400;SDS011;63974;47.538;18.972;2023-01-28T03:26:03;51.97;;;16.67;;
75400;SDS011;63974;47.538;18.972;2023-01-28T03:29:29;48.92;;;17.73;;
75400;SDS011;63974;47.538;18.972;2023-01-28T03:32:53;45.72;;;16.90;;
75400;SDS011;63974;47.538;18.972;2023-01-28T03:36:16;51.33;;;17.70;;
75400;SDS011;63974;47.538;18.972;2023-01-28T03:39:39;49.90;;;20.03;;
75400;SDS011;63974;47.538;18.972;2023-01-28T03:42:44;40.80;;;15.52;;
75400;SDS011;63974;47.538;18.972;2023-01-28T03:46:03;53.92;;;19.38;;
75400;SDS011;63974;47.538;18.972;2023-01-28T03:49:08;45.65;;;16.05;;
75400;SDS011;63974;47.538;18.972;2023-01-28T03:52:11;47.00;;;16.20;;
75400;SDS011;63974;47.538;18.972;2023-01-28T03:55:14;38.63;;;14.87;;
75400;SDS011;63974;47.538;18.972;2023-01-28T03:58:19;52.67;;;17.40;;
75400;SDS011;63974;47.538;18.972;2023-01-28T04:01:25;47.28;;;18.02;;
75400;SDS011;63974;47.538;18.972;2023-01-28T04:04:29;44.92;;;15.35;;
75400;SDS011;63974;47.538;18.972;2023-01-28T04:07:34;44.60;;;15.38;;
75400;SDS011;63974;47.538;18.972;2023-01-28T04:10:56;46.97;;;17.33;;
75400;SDS011;63974;47.538;18.972;2023-01-28T04:14:03;51.72;;;19.63;;
75400;SDS011;63974;47.538;18.972;2023-01-28T04:17:28;57.13;;;22.23;;
75400;SDS011;63974;47.538;18.972;2023-01-28T04:20:31;51.00;;;17.15;;
75400;SDS011;63974;47.538;18.972;2023-01-28T04:23:35;47.75;;;17.83;;
75400;SDS011;63974;47.538;18.972;2023-01-28T04:26:38;49.73;;;17.70;;
75400;SDS011;63974;47.538;18.972;2023-01-28T04:29:41;44.55;;;15.15;;
75400;SDS011;63974;47.538;18.972;2023-01-28T04:33:16;48.88;;;15.57;;
75400;SDS011;63974;47.538;18.972;2023-01-28T04:36:28;54.67;;;20.33;;
75400;SDS011;63974;47.538;18.972;2023-01-28T04:39:51;53.90;;;19.30;;
75400;SDS011;63974;47.538;18.972;2023-01-28T04:42:56;42.17;;;15.27;;
75400;SDS011;63974;47.538;18.972;2023-01-28T04:46:20;40.55;;;15.93;;
75400;SDS011;63974;47.538;18.972;2023-01-28T04:49:37;55.40;;;18.10;;
75400;SDS011;63974;47.538;18.972;2023-01-28T04:53:03;47.67;;;15.65;;
75400;SDS011;63974;47.538;18.972;2023-01-28T04:56:32;44.30;;;16.27;;
75400;SDS011;63974;47.538;18.972;2023-01-28T04:59:36;51.00;;;17.60;;
75400;SDS011;63974;47.538;18.972;2023-01-28T05:02:39;47.28;;;16.45;;
75400;SDS011;63974;47.538;18.972;2023-01-28T05:05:41;52.95;;;19.08;;
75400;SDS011;63974;47.538;18.972;2023-01-28T05:08:55;42.90;;;14.98;;
75400;SDS011;63974;47.538;18.972;2023-01-28T05:11:57;48.72;;;17.92;;
75400;SDS011;63974;47.538;18.972;2023-01-28T05:15:00;48.70;;;16.37;;
75400;SDS011;63974;47.538;18.972;2023-01-28T05:18:03;51.42;;;19.75;;
75400;SDS011;63974;47.538;18.972;2023-01-28T05:21:13;60.72;;;19.50;;
75400;SDS011;63974;47.538;18.972;2023-01-28T05:24:16;54.65;;;21.50;;
75400;SDS011;63974;47.538;18.972;2023-01-28T05:27:19;60.60;;;19.33;;
75400;SDS011;63974;47.538;18.972;2023-01-28T05:30:22;49.17;;;18.77;;
75400;SDS011;63974;47.538;18.972;2023-01-28T05:33:26;50.60;;;18.23;;
75400;SDS011;63974;47.538;18.972;2023-01-28T05:36:29;40.67;;;17.02;;
75400;SDS011;63974;47.538;18.972;2023-01-28T05:39:34;51.72;;;17.88;;
75400;SDS011;63974;47.538;18.972;2023-01-28T05:42:37;53.33;;;18.17;;
75400;SDS011;63974;47.538;18.972;2023-01-28T05:45:56;43.43;;;16.93;;
75400;SDS011;63974;47.538;18.972;2023-01-28T05:49:07;50.50;;;17.33;;
75400;SDS011;63974;47.538;18.972;2023-01-28T05:52:32;49.47;;;17.77;;
75400;SDS011;63974;47.538;18.972;2023-01-28T05:55:35;51.75;;;19.02;;
75400;SDS011;63974;47.538;18.972;2023-01-28T05:58:38;51.65;;;17.33;;
75400;SDS011;63974;47.538;18.972;2023-01-28T06:01:42;39.60;;;14.63;;
75400;SDS011;63974;47.538;18.972;2023-01-28T06:04:45;45.63;;;15.65;;
75400;SDS011;63974;47.538;18.972;2023-01-28T06:07:48;53.53;;;18.30;;
75400;SDS011;63974;47.538;18.972;2023-01-28T06:10:52;50.97;;;18.23;;
75400;SDS011;63974;47.538;18.972;2023-01-28T06:13:57;59.45;;;19.88;;
75400;SDS011;63974;47.538;18.972;2023-01-28T06:17:06;53.13;;;19.47;;
75400;SDS011;63974;47.538;18.972;2023-01-28T06:20:21;39.28;;;16.42;;
75400;SDS011;63974;47.538;18.972;2023-01-28T06:23:25;45.97;;;15.63;;
75400;SDS011;63974;47.538;18.972;2023-01-28T06:26:29;40.70;;;15.52;;
75400;SDS011;63974;47.538;18.972;2023-01-28T06:29:31;52.50;;;18.75;;
75400;SDS011;63974;47.538;18.972;2023-01-28T06:32:34;46.07;;;16.13;;
75400;SDS011;63974;47.538;18.972;2023-01-28T06:35:38;51.75;;;21.42;;
75400;SDS011;63974;47.538;18.972;2023-01-28T06:38:40;38.00;;;16.83;;
75400;SDS011;63974;47.538;18.972;2023-01-28T06:41:43;46.92;;;16.55;;
75400;SDS011;63974;47.538;18.972;2023-01-28T06:44:46;41.10;;;16.05;;
75400;SDS011;63974;47.538;18.972;2023-01-28T06:47:49;56.70;;;20.93;;
75400;SDS011;63974;47.538;18.972;2023-01-28T06:50:52;46.50;;;16.35;;
75400;SDS011;63974;47.538;18.972;2023-01-28T06:53:55;62.72;;;21.65;;
75400;SDS011;63974;47.538;18.972;2023-01-28T06:56:57;56.50;;;19.90;;
75400;SDS011;63974;47.538;18.972;2023-01-28T07:00:00;52.50;;;18.40;;
75400;SDS011;63974;47.538;18.972;2023-01-28T07:03:03;56.07;;;19.40;;
75400;SDS011;63974;47.538;18.972;2023-01-28T07:06:06;37.63;;;15.48;;
75400;SDS011;63974;47.538;18.972;2023-01-28T07:09:09;46.30;;;18.65;;
75400;SDS011;63974;47.538;18.972;2023-01-28T07:12:12;60.05;;;19.35;;
75400;SDS011;63974;47.538;18.972;2023-01-28T07:15:15;47.40;;;19.13;;
75400;SDS011;63974;47.538;18.972;2023-01-28T07:18:18;47.93;;;18.70;;
75400;SDS011;63974;47.538;18.972;2023-01-28T07:21:21;46.58;;;18.90;;
75400;SDS011;63974;47.538;18.972;2023-01-28T07:24:23;49.70;;;19.45;;
75400;SDS011;63974;47.538;18.972;2023-01-28T07:27:26;50.90;;;19.45;;
75400;SDS011;63974;47.538;18.972;2023-01-28T07:30:29;39.53;;;15.60;;
75400;SDS011;63974;47.538;18.972;2023-01-28T07:33:32;56.17;;;21.47;;
75400;SDS011;63974;47.538;18.972;2023-01-28T07:36:35;51.72;;;18.10;;
75400;SDS011;63974;47.538;18.972;2023-01-28T07:39:37;41.38;;;16.27;;
75400;SDS011;63974;47.538;18.972;2023-01-28T07:42:40;45.70;;;16.20;;
75400;SDS011;63974;47.538;18.972;2023-01-28T07:45:46;50.47;;;19.17;;
75400;SDS011;63974;47.538;18.972;2023-01-28T07:48:49;47.27;;;16.10;;
75400;SDS011;63974;47.538;18.972;2023-01-28T07:51:52;41.20;;;15.32;;
75400;SDS011;63974;47.538;18.972;2023-01-28T07:54:55;42.58;;;14.48;;
75400;SDS011;63974;47.538;18.972;2023-01-28T07:57:58;52.60;;;18.13;;
75400;SDS011;63974;47.538;18.972;2023-01-28T08:01:02;42.53;;;17.40;;
75400;SDS011;63974;47.538;18.972;2023-01-28T08:04:05;49.83;;;17.47;;
75400;SDS011;63974;47.538;18.972;2023-01-28T08:07:08;42.58;;;16.65;;
75400;SDS011;63974;47.538;18.972;2023-01-28T08:10:11;39.83;;;16.70;;
75400;SDS011;63974;47.538;18.972;2023-01-28T08:13:15;42.90;;;15.13;;
75400;SDS011;63974;47.538;18.972;2023-01-28T08:16:19;38.08;;;17.90;;
75400;SDS011;63974;47.538;18.972;2023-01-28T08:19:22;48.13;;;15.40;;
75400;SDS011;63974;47.538;18.972;2023-01-28T08:22:25;44.47;;;16.70;;
75400;SDS011;63974;47.538;18.972;2023-01-28T08:25:28;33.33;;;13.13;;
75400;SDS011;63974;47.538;18.972;2023-01-28T08:28:31;44.25;;;17.25;;
75400;SDS011;63974;47.538;18.972;2023-01-28T08:31:34;49.53;;;19.15;;
75400;SDS011;63974;47.538;18.972;2023-01-28T08:34:37;31.13;;;12.87;;
75400;SDS011;63974;47.538;18.972;2023-01-28T08:37:39;43.30;;;15.65;;
75400;SDS011;63974;47.538;18.972;2023-01-28T08:40:42;44.55;;;15.65;;
75400;SDS011;63974;47.538;18.972;2023-01-28T08:43:45;39.50;;;15.40;;
75400;SDS011;63974;47.538;18.972;2023-01-28T08:46:48;36.88;;;15.88;;
75400;SDS011;63974;47.538;18.972;2023-01-28T08:49:51;42.47;;;16.27;;
75400;SDS011;63974;47.538;18.972;2023-01-28T08:52:55;36.05;;;13.13;;
75400;SDS011;63974;47.538;18.972;2023-01-28T08:55:59;32.22;;;12.65;;
75400;SDS011;63974;47.538;18.972;2023-01-28T08:59:02;35.88;;;13.77;;
75400;SDS011;63974;47.538;18.972;2023-01-28T09:02:05;21.80;;;11.25;;
75400;SDS011;63974;47.538;18.972;2023-01-28T09:05:07;28.83;;;12.30;;
75400;SDS011;63974;47.538;18.972;2023-01-28T09:08:13;34.97;;;12.45;;
75400;SDS011;63974;47.538;18.972;2023-01-28T09:11:16;27.45;;;12.90;;
75400;SDS011;63974;47.538;18.972;2023-01-28T09:14:19;33.42;;;14.32;;
75400;SDS011;63974;47.538;18.972;2023-01-28T09:17:22;37.45;;;14.70;;
75400;SDS011;63974;47.538;18.972;2023-01-28T09:20:25;22.50;;;11.37;;
75400;SDS011;63974;47.538;18.972;2023-01-28T09:23:28;33.08;;;12.98;;
75400;SDS011;63974;47.538;18.972;2023-01-28T09:26:31;39.65;;;16.83;;
75400;SDS011;63974;47.538;18.972;2023-01-28T09:29:36;22.90;;;9.50;;
75400;SDS011;63974;47.538;18.972;2023-01-28T09:32:40;37.20;;;15.77;;
75400;SDS011;63974;47.538;18.972;2023-01-28T09:35:43;34.90;;;14.93;;
75400;SDS011;63974;47.538;18.972;2023-01-28T09:38:46;31.67;;;15.23;;
75400;SDS011;63974;47.538;18.972;2023-01-28T09:48:21;37.80;;;14.38;;
75400;SDS011;63974;47.538;18.972;2023-01-28T09:54:40;33.33;;;13.30;;
75400;SDS011;63974;47.538;18.972;2023-01-28T09:57:47;32.13;;;12.27;;
75400;SDS011;63974;47.538;18.972;2023-01-28T10:04:32;26.00;;;11.05;;
75400;SDS011;63974;47.538;18.972;2023-01-28T10:14:12;29.02;;;12.32;;
75400;SDS011;63974;47.538;18.972;2023-01-28T10:17:43;31.45;;;13.25;;
75400;SDS011;63974;47.538;18.972;2023-01-28T10:20:50;33.58;;;12.52;;
75400;SDS011;63974;47.538;18.972;2023-01-28T10:23:58;27.43;;;10.40;;
75400;SDS011;63974;47.538;18.972;2023-01-28T10:27:09;27.63;;;12.07;;
75400;SDS011;63974;47.538;18.972;2023-01-28T10:33:30;26.35;;;11.82;;
75400;SDS011;63974;47.538;18.972;2023-01-28T10:36:38;28.23;;;14.05;;
75400;SDS011;63974;47.538;18.972;2023-01-28T10:39:41;29.23;;;11.23;;
75400;SDS011;63974;47.538;18.972;2023-01-28T10:42:44;28.35;;;12.57;;
75400;SDS011;63974;47.538;18.972;2023-01-28T10:49:28;30.13;;;11.50;;
75400;SDS011;63974;47.538;18.972;2023-01-28T10:52:33;25.58;;;11.52;;
75400;SDS011;63974;47.538;18.972;2023-01-28T10:55:51;26.53;;;10.80;;
75400;SDS011;63974;47.538;18.972;2023-01-28T11:02:04;29.42;;;13.50;;
75400;SDS011;63974;47.538;18.972;2023-01-28T11:05:30;30.33;;;11.95;;
75400;SDS011;63974;47.538;18.972;2023-01-28T11:08:41;30.88;;;13.27;;
75400;SDS011;63974;47.538;18.972;2023-01-28T11:11:45;33.10;;;12.97;;
75400;SDS011;63974;47.538;18.972;2023-01-28T11:14:58;28.35;;;12.48;;
75400;SDS011;63974;47.538;18.972;2023-01-28T11:18:07;29.35;;;12.30;;
75400;SDS011;63974;47.538;18.972;2023-01-28T11:21:20;35.35;;;14.15;;
75400;SDS011;63974;47.538;18.972;2023-01-28T11:24:27;27.85;;;10.80;;
75400;SDS011;63974;47.538;18.972;2023-01-28T11:27:33;37.43;;;15.57;;
75400;SDS011;63974;47.538;18.972;2023-01-28T11:30:37;26.33;;;10.65;;
75400;SDS011;63974;47.538;18.972;2023-01-28T11:37:02;33.88;;;14.05;;
75400;SDS011;63974;47.538;18.972;2023-01-28T11:40:15;30.90;;;12.90;;
75400;SDS011;63974;47.538;18.972;2023-01-28T11:43:27;33.90;;;12.93;;
75400;SDS011;63974;47.538;18.972;2023-01-28T12:10:08;30.80;;;13.02;;
75400;SDS011;63974;47.538;18.972;2023-01-28T12:14:07;31.50;;;13.50;;
75400;SDS011;63974;47.538;18.972;2023-01-28T12:16:59;28.87;;;11.87;;
75400;SDS011;63974;47.538;18.972;2023-01-28T12:49:19;25.23;;;10.77;;
75400;SDS011;63974;47.538;18.972;2023-01-28T12:52:28;33.78;;;12.75;;
75400;SDS011;63974;47.538;18.972;2023-01-28T12:56:00;33.67;;;12.98;;
75400;SDS011;63974;47.538;18.972;2023-01-28T12:59:10;32.10;;;13.38;;
75400;SDS011;63974;47.538;18.972;2023-01-28T13:02:59;35.08;;;13.20;;
75400;SDS011;63974;47.538;18.972;2023-01-28T13:05:52;34.23;;;12.43;;
75400;SDS011;63974;47.538;18.972;2023-01-28T13:09:09;26.95;;;11.20;;
75400;SDS011;63974;47.538;18.972;2023-01-28T13:12:23;38.08;;;16.73;;
75400;SDS011;63974;47.538;18.972;2023-01-28T13:15:27;41.17;;;13.50;;
75400;SDS011;63974;47.538;18.972;2023-01-28T13:21:46;31.73;;;11.43;;
75400;SDS011;63974;47.538;18.972;2023-01-28T13:24:51;38.10;;;13.20;;
75400;SDS011;63974;47.538;18.972;2023-01-28T13:28:01;32.85;;;14.00;;
75400;SDS011;63974;47.538;18.972;2023-01-28T13:31:07;26.65;;;10.77;;
75400;SDS011;63974;47.538;18.972;2023-01-28T13:37:44;39.70;;;14.20;;
75400;SDS011;63974;47.538;18.972;2023-01-28T13:40:53;42.72;;;15.93;;
75400;SDS011;63974;47.538;18.972;2023-01-28T13:43:58;38.00;;;14.50;;
75400;SDS011;63974;47.538;18.972;2023-01-28T13:50:11;25.10;;;10.57;;
75400;SDS011;63974;47.538;18.972;2023-01-28T13:53:20;28.73;;;11.03;;
75400;SDS011;63974;47.538;18.972;2023-01-28T14:16:39;39.63;;;17.23;;
75400;SDS011;63974;47.538;18.972;2023-01-28T14:19:53;45.53;;;17.60;;
75400;SDS011;63974;47.538;18.972;2023-01-28T14:23:00;35.60;;;11.98;;
75400;SDS011;63974;47.538;18.972;2023-01-28T14:32:30;34.72;;;15.07;;
75400;SDS011;63974;47.538;18.972;2023-01-28T14:35:36;28.95;;;12.40;;
75400;SDS011;63974;47.538;18.972;2023-01-28T14:38:42;36.97;;;14.93;;
75400;SDS011;63974;47.538;18.972;2023-01-28T14:41:47;39.40;;;14.40;;
75400;SDS011;63974;47.538;18.972;2023-01-28T14:58:25;39.53;;;16.70;;
75400;SDS011;63974;47.538;18.972;2023-01-28T15:01:34;34.38;;;12.82;;
75400;SDS011;63974;47.538;18.972;2023-01-28T15:04:37;35.65;;;13.50;;
75400;SDS011;63974;47.538;18.972;2023-01-28T15:07:42;32.65;;;13.45;;
75400;SDS011;63974;47.538;18.972;2023-01-28T15:10:47;32.13;;;12.98;;
75400;SDS011;63974;47.538;18.972;2023-01-28T15:13:54;33.60;;;13.33;;
75400;SDS011;63974;47.538;18.972;2023-01-28T15:17:00;37.03;;;15.00;;
75400;SDS011;63974;47.538;18.972;2023-01-28T15:20:05;37.50;;;15.82;;
75400;SDS011;63974;47.538;18.972;2023-01-28T15:23:11;39.10;;;13.82;;
75400;SDS011;63974;47.538;18.972;2023-01-28T15:26:25;38.03;;;14.98;;
75400;SDS011;63974;47.538;18.972;2023-01-28T15:32:35;35.25;;;14.25;;
75400;SDS011;63974;47.538;18.972;2023-01-28T15:35:44;33.60;;;13.65;;
75400;SDS011;63974;47.538;18.972;2023-01-28T15:38:48;37.42;;;15.43;;
75400;SDS011;63974;47.538;18.972;2023-01-28T15:45:00;38.17;;;15.00;;
75400;SDS011;63974;47.538;18.972;2023-01-28T15:48:04;39.92;;;14.45;;
75400;SDS011;63974;47.538;18.972;2023-01-28T15:51:15;34.17;;;12.85;;
75400;SDS011;63974;47.538;18.972;2023-01-28T15:54:21;34.83;;;14.20;;
75400;SDS011;63974;47.538;18.972;2023-01-28T15:57:27;30.27;;;13.00;;
75400;SDS011;63974;47.538;18.972;2023-01-28T16:00:36;38.70;;;15.20;;
75400;SDS011;63974;47.538;18.972;2023-01-28T16:03:40;36.85;;;13.20;;
75400;SDS011;63974;47.538;18.972;2023-01-28T16:06:45;38.53;;;15.00;;
75400;SDS011;63974;47.538;18.972;2023-01-28T16:09:52;34.47;;;13.43;;
75400;SDS011;63974;47.538;18.972;2023-01-28T16:12:59;35.97;;;12.02;;
75400;SDS011;63974;47.538;18.972;2023-01-28T16:16:27;35.53;;;13.13;;
75400;SDS011;63974;47.538;18.972;2023-01-28T16:19:39;39.85;;;15.38;;
75400;SDS011;63974;47.538;18.972;2023-01-28T16:22:47;30.92;;;12.20;;
75400;SDS011;63974;47.538;18.972;2023-01-28T16:29:13;37.50;;;14.18;;
75400;SDS011;63974;47.538;18.972;2023-01-28T16:35:32;37.67;;;12.18;;
75400;SDS011;63974;47.538;18.972;2023-01-28T16:38:54;31.00;;;11.75;;
75400;SDS011;63974;47.538;18.972;2023-01-28T16:41:58;36.10;;;14.45;;
75400;SDS011;63974;47.538;18.972;2023-01-28T16:45:01;38.80;;;15.10;;
75400;SDS011;63974;47.538;18.972;2023-01-28T16:48:04;45.37;;;16.07;;
75400;SDS011;63974;47.538;18.972;2023-01-28T16:51:13;40.03;;;13.50;;
75400;SDS011;63974;47.538;18.972;2023-01-28T16:54:18;36.90;;;13.88;;
75400;SDS011;63974;47.538;18.972;2023-01-28T16:57:21;31.60;;;11.50;;
75400;SDS011;63974;47.538;18.972;2023-01-28T17:00:25;36.25;;;14.18;;
75400;SDS011;63974;47.538;18.972;2023-01-28T17:03:28;36.07;;;13.57;;
75400;SDS011;63974;47.538;18.972;2023-01-28T17:06:31;36.97;;;13.73;;
75400;SDS011;63974;47.538;18.972;2023-01-28T17:09:34;44.80;;;16.08;;
75400;SDS011;63974;47.538;18.972;2023-01-28T17:12:37;37.72;;;14.02;;
75400;SDS011;63974;47.538;18.972;2023-01-28T17:15:40;35.33;;;12.93;;
75400;SDS011;63974;47.538;18.972;2023-01-28T17:18:44;38.40;;;15.87;;
75400;SDS011;63974;47.538;18.972;2023-01-28T17:21:49;44.42;;;16.17;;
75400;SDS011;63974;47.538;18.972;2023-01-28T17:24:52;42.47;;;14.25;;
75400;SDS011;63974;47.538;18.972;2023-01-28T17:27:55;46.13;;;15.40;;
75400;SDS011;63974;47.538;18.972;2023-01-28T17:30:58;45.40;;;16.90;;
75400;SDS011;63974;47.538;18.972;2023-01-28T17:34:02;41.63;;;14.93;;
75400;SDS011;63974;47.538;18.972;2023-01-28T17:37:08;44.25;;;14.95;;
75400;SDS011;63974;47.538;18.972;2023-01-28T17:40:11;37.10;;;14.43;;
75400;SDS011;63974;47.538;18.972;2023-01-28T17:43:16;47.17;;;16.75;;
75400;SDS011;63974;47.538;18.972;2023-01-28T17:46:19;36.33;;;14.98;;
75400;SDS011;63974;47.538;18.972;2023-01-28T17:49:23;39.10;;;13.97;;
75400;SDS011;63974;47.538;18.972;2023-01-28T17:52:26;40.67;;;13.68;;
75400;SDS011;63974;47.538;18.972;2023-01-28T17:55:29;36.20;;;15.30;;
75400;SDS011;63974;47.538;18.972;2023-01-28T17:58:32;40.47;;;13.68;;
75400;SDS011;63974;47.538;18.972;2023-01-28T18:01:35;38.85;;;15.32;;
75400;SDS011;63974;47.538;18.972;2023-01-28T18:04:39;38.67;;;13.73;;
75400;SDS011;63974;47.538;18.972;2023-01-28T18:07:42;37.45;;;14.10;;
75400;SDS011;63974;47.538;18.972;2023-01-28T18:10:47;39.38;;;14.05;;
75400;SDS011;63974;47.538;18.972;2023-01-28T18:13:50;43.60;;;15.65;;
75400;SDS011;63974;47.538;18.972;2023-01-28T18:16:52;37.70;;;14.07;;
75400;SDS011;63974;47.538;18.972;2023-01-28T18:19:55;40.27;;;14.30;;
75400;SDS011;63974;47.538;18.972;2023-01-28T18:22:59;39.47;;;14.27;;
75400;SDS011;63974;47.538;18.972;2023-01-28T18:26:03;45.63;;;16.30;;
75400;SDS011;63974;47.538;18.972;2023-01-28T18:29:08;48.05;;;16.00;;
75400;SDS011;63974;47.538;18.972;2023-01-28T18:32:11;40.83;;;16.33;;
75400;SDS011;63974;47.538;18.972;2023-01-28T18:35:14;45.80;;;16.27;;
75400;SDS011;63974;47.538;18.972;2023-01-28T18:38:17;43.88;;;15.75;;
75400;SDS011;63974;47.538;18.972;2023-01-28T18:41:20;39.15;;;15.07;;
75400;SDS011;63974;47.538;18.972;2023-01-28T18:44:23;45.60;;;15.57;;
75400;SDS011;63974;47.538;18.972;2023-01-28T18:47:28;39.47;;;15.15;;
75400;SDS011;63974;47.538;18.972;2023-01-28T18:50:31;41.03;;;16.40;;
75400;SDS011;63974;47.538;18.972;2023-01-28T18:53:34;26.90;;;12.35;;
75400;SDS011;63974;47.538;18.972;2023-01-28T18:56:37;45.90;;;16.90;;
75400;SDS011;63974;47.538;18.972;2023-01-28T18:59:41;40.45;;;14.35;;
75400;SDS011;63974;47.538;18.972;2023-01-28T19:02:44;38.80;;;15.65;;
75400;SDS011;63974;47.538;18.972;2023-01-28T19:05:47;40.77;;;15.40;;
75400;SDS011;63974;47.538;18.972;2023-01-28T19:08:50;43.17;;;15.68;;
75400;SDS011;63974;47.538;18.972;2023-01-28T19:11:55;39.60;;;14.52;;
75400;SDS011;63974;47.538;18.972;2023-01-28T19:14:58;37.88;;;14.95;;
75400;SDS011;63974;47.538;18.972;2023-01-28T19:18:01;35.90;;;14.73;;
75400;SDS011;63974;47.538;18.972;2023-01-28T19:21:05;28.73;;;10.83;;
75400;SDS011;63974;47.538;18.972;2023-01-28T19:24:09;37.60;;;14.55;;
75400;SDS011;63974;47.538;18.972;2023-01-28T19:27:13;39.53;;;14.02;;
75400;SDS011;63974;47.538;18.972;2023-01-28T19:30:17;33.22;;;12.80;;
75400;SDS011;63974;47.538;18.972;2023-01-28T19:33:20;38.10;;;13.80;;
75400;SDS011;63974;47.538;18.972;2023-01-28T19:36:23;39.97;;;14.57;;
75400;SDS011;63974;47.538;18.972;2023-01-28T19:39:28;40.17;;;14.50;;
75400;SDS011;63974;47.538;18.972;2023-01-28T19:42:33;42.25;;;16.50;;
75400;SDS011;63974;47.538;18.972;2023-01-28T19:45:36;33.35;;;12.82;;
75400;SDS011;63974;47.538;18.972;2023-01-28T19:48:38;42.22;;;16.10;;
75400;SDS011;63974;47.538;18.972;2023-01-28T19:51:42;37.63;;;14.37;;
75400;SDS011;63974;47.538;18.972;2023-01-28T19:54:47;44.83;;;17.52;;
75400;SDS011;63974;47.538;18.972;2023-01-28T19:57:49;38.53;;;14.25;;
75400;SDS011;63974;47.538;18.972;2023-01-28T20:00:52;34.88;;;14.35;;
75400;SDS011;63974;47.538;18.972;2023-01-28T20:03:56;33.30;;;13.65;;
75400;SDS011;63974;47.538;18.972;2023-01-28T20:07:00;38.70;;;13.77;;
75400;SDS011;63974;47.538;18.972;2023-01-28T20:10:04;39.65;;;14.35;;
75400;SDS011;63974;47.538;18.972;2023-01-28T20:13:07;40.10;;;14.63;;
75400;SDS011;63974;47.538;18.972;2023-01-28T20:16:11;33.00;;;12.85;;
75400;SDS011;63974;47.538;18.972;2023-01-28T20:19:20;38.63;;;14.00;;
75400;SDS011;63974;47.538;18.972;2023-01-28T20:22:24;38.33;;;14.63;;
75400;SDS011;63974;47.538;18.972;2023-01-28T20:25:26;41.58;;;14.48;;
75400;SDS011;63974;47.538;18.972;2023-01-28T20:28:29;42.00;;;16.02;;
75400;SDS011;63974;47.538;18.972;2023-01-28T20:31:33;38.53;;;13.57;;
75400;SDS011;63974;47.538;18.972;2023-01-28T20:34:37;35.60;;;14.50;;
75400;SDS011;63974;47.538;18.972;2023-01-28T20:37:40;39.33;;;14.33;;
75400;SDS011;63974;47.538;18.972;2023-01-28T20:40:44;41.33;;;13.27;;